Terminal Aerodrome Forecast
Issued by NWS

Current Version | Previous Version | Text Only | Print | Product List | Glossary On
Versions: 1 2 3 4 5 6 7 8 9 10 11 12 13 14 15 16 17 18 19 20 21 22 23 24 25
000 FTUS41 KGYX 011120 TAFLEB TAF KLEB 011120Z 0112/0212 00000KT P6SM SKC FM020000 30005KT P6SM BKN100 OVC250 FM020500 30005KT P6SM OVC080 FM020700 36005KT 3SM -SN OVC015 FM021100 36005KT 1SM -SN OVC007=

USA.gov is the U.S. government's official web portal to all federal, state and local government web resources and services.